No particular awareness of the weather is required.    There are no Weather-warnings


Meteo18 Weather Cam more information Meteo18 Weather Cam


Thunder radar more information blitzortung!


Rain radar more information rain snow radar


Visit our other weather sites:

Template documentation
and downloads

And another site



Weather Underground History page Text

Daily Summary for February 8, 2018 Units:  Metric    English   Both
« Previous Day
Next Day »
Daily Weekly Monthly Yearly Custom
  High: Low: Average:
Temperature: -17.8 °C -19.8 °C -18.7 °C
Dew Point: -17.8 °C -20.3 °C -19.3 °C
Humidity: Humidity % 87 % 91 %
Wind Speed: 0 km/h 0 km/h 2.9 km/h
Wind Gust: 0 km/h - -
Wind:- - SSE
Pressure: 0 hPa 34510.1 hPa -
Precipitation: 0 mm    
Historical Graphs
 
 
Tabular Data for February 8, 2018
Time Temperature Dew Point Pressure Wind Wind Speed Wind Gust Humidity Rainfall Rate (Hourly)
-17.8 °C -17.8 °C 0 hPa Calm     Humidity % 0 mm
00:02 -18.7 °C -19.1 °C 34510.1 hPa North 7.6 km/h 15.6 km/h 94 % 0 mm
00:08 -18.7 °C -19.1 °C 34510.1 hPa North 5.1 km/h 10.3 km/h 94 % 0 mm
00:14 -18.7 °C -19.1 °C 34520.3 hPa North 5.1 km/h 10.3 km/h 94 % 0 mm
00:20 -18.7 °C -19.1 °C 34520.3 hPa Calm   2.6 km/h 94 % 0 mm
00:26 -18.7 °C -19.1 °C 34520.3 hPa Calm   2.6 km/h 94 % 0 mm
00:32 -18.7 °C -19.1 °C 34510.1 hPa Calm   5.1 km/h 94 % 0 mm
00:38 -18.7 °C -19.1 °C 34510.1 hPa North 2.3 km/h 7.7 km/h 94 % 0 mm
00:44 -18.7 °C -19.2 °C 34510.1 hPa North 2.3 km/h 7.7 km/h 94 % 0 mm
00:50 -18.7 °C -19.2 °C 34510.1 hPa North 12.7 km/h 15.6 km/h 94 % 0 mm
00:56 -18.7 °C -19.2 °C 34510.1 hPa North 5.1 km/h 5.1 km/h 94 % 0 mm
01:02 -18.7 °C -19.2 °C 34510.1 hPa North 2.3 km/h 5.1 km/h 94 % 0 mm
01:08 -18.7 °C -19.2 °C 34510.1 hPa North 2.3 km/h 2.6 km/h 94 % 0 mm
01:14 -18.7 °C -19.2 °C 34520.3 hPa North 5.1 km/h 7.7 km/h 94 % 0 mm
01:20 -18.7 °C -19.2 °C 34510.1 hPa North 7.6 km/h 10.3 km/h 94 % 0 mm
01:26 -18.8 °C -19.2 °C 34520.3 hPa North 10.3 km/h 20.8 km/h 94 % 0 mm
01:32 -18.8 °C -19.2 °C 34520.3 hPa North 7.6 km/h 12.9 km/h 94 % 0 mm
01:38 -18.8 °C -19.2 °C 34520.3 hPa NW 10.3 km/h 15.6 km/h 94 % 0 mm
01:44 -18.8 °C -19.2 °C 34520.3 hPa NNW 7.6 km/h 12.9 km/h 94 % 0 mm
01:50 -18.8 °C -19.2 °C 34520.3 hPa NW 2.3 km/h 10.3 km/h 94 % 0 mm
01:56 -18.8 °C -19.2 °C 34520.3 hPa NW 2.3 km/h 12.9 km/h 94 % 0 mm
02:02 -18.8 °C -19.3 °C 34520.3 hPa Calm   7.7 km/h 94 % 0 mm
02:08 -18.8 °C -19.3 °C 34520.3 hPa NNW 2.3 km/h 12.9 km/h 94 % 0 mm
02:14 -18.8 °C -19.3 °C 34520.3 hPa NNW 5.1 km/h 10.3 km/h 94 % 0 mm
02:20 -18.8 °C -19.4 °C 34520.3 hPa NW 12.7 km/h 18.2 km/h 93 % 0 mm
02:26 -18.8 °C -19.4 °C 34520.3 hPa Calm   10.3 km/h 93 % 0 mm
02:32 -18.8 °C -19.4 °C 34520.3 hPa North 12.7 km/h 12.9 km/h 93 % 0 mm
02:38 -18.8 °C -19.4 °C 34520.3 hPa NNW 10.3 km/h 15.6 km/h 93 % 0 mm
02:44 -18.8 °C -19.4 °C 34520.3 hPa NNW 2.3 km/h 10.3 km/h 93 % 0 mm
02:50 -18.8 °C -19.4 °C 34520.3 hPa North 5.1 km/h 15.6 km/h 93 % 0 mm
02:56 -18.8 °C -19.4 °C 34520.3 hPa NNE 20.9 km/h 23.3 km/h 93 % 0 mm
03:02 -18.9 °C -19.4 °C 34520.3 hPa NNE 10.3 km/h 18.2 km/h 93 % 0 mm
03:08 -18.9 °C -19.5 °C 34520.3 hPa North 12.7 km/h 23.3 km/h 92 % 0 mm
03:14 -18.9 °C -19.6 °C 34520.3 hPa NW 5.1 km/h 18.2 km/h 92 % 0 mm
03:20 -18.9 °C -19.6 °C 34520.3 hPa North 10.3 km/h 20.8 km/h 92 % 0 mm
03:26 -18.9 °C -19.6 °C 34520.3 hPa NW 7.6 km/h 12.9 km/h 92 % 0 mm
03:32 -18.9 °C -19.6 °C 34520.3 hPa NNW 7.6 km/h 10.3 km/h 92 % 0 mm
03:38 -18.9 °C -19.6 °C 34520.3 hPa NW 2.3 km/h 10.3 km/h 92 % 0 mm
03:44 -19 °C -19.7 °C 34520.3 hPa NW 5.1 km/h 15.6 km/h 91 % 0 mm
03:50 -19 °C -19.7 °C 34510.1 hPa NNW 5.1 km/h 12.9 km/h 91 % 0 mm
03:56 -19.1 °C -19.8 °C 34520.3 hPa NW 2.3 km/h 12.9 km/h 91 % 0 mm
04:02 -19.1 °C -19.8 °C 34520.3 hPa Calm   7.7 km/h 91 % 0 mm
04:08 -19.1 °C -19.7 °C 34520.3 hPa North 5.1 km/h 7.7 km/h 92 % 0 mm
04:14 -19.2 °C -19.8 °C 34520.3 hPa NNW 7.6 km/h 7.7 km/h 92 % 0 mm
04:20 -19.2 °C -19.8 °C 34520.3 hPa WNW 2.3 km/h 7.7 km/h 92 % 0 mm
04:26 -19.3 °C -19.9 °C 34520.3 hPa WNW 2.3 km/h 7.7 km/h 92 % 0 mm
04:32 -19.3 °C -19.9 °C 34520.3 hPa NNW 2.3 km/h 7.7 km/h 93 % 0 mm
04:38 -19.4 °C -19.9 °C 34510.1 hPa NNW 7.6 km/h 10.3 km/h 93 % 0 mm
04:44 -19.4 °C -19.9 °C 34510.1 hPa Calm   10.3 km/h 93 % 0 mm
04:50 -19.4 °C -19.9 °C 34510.1 hPa WNW 5.1 km/h 10.3 km/h 93 % 0 mm
04:56 -19.4 °C -20 °C 34510.1 hPa NW 2.3 km/h 7.7 km/h 93 % 0 mm
05:02 -19.5 °C -20.1 °C 34510.1 hPa NNW 2.3 km/h 7.7 km/h 93 % 0 mm
05:08 -19.6 °C -20.1 °C 34510.1 hPa WNW 2.3 km/h 5.1 km/h 93 % 0 mm
05:14 -19.6 °C -20.2 °C 34520.3 hPa WNW 2.3 km/h 5.1 km/h 93 % 0 mm
05:21 -19.7 °C -20.2 °C 34520.3 hPa NW 2.3 km/h 2.6 km/h 93 % 0 mm
05:27 -19.7 °C -20.2 °C 34520.3 hPa Calm   5.1 km/h 93 % 0 mm
05:33 -19.7 °C -20.2 °C 34520.3 hPa NW 2.3 km/h 7.7 km/h 93 % 0 mm
05:39 -19.7 °C -20.2 °C 34520.3 hPa Calm   7.7 km/h 94 % 0 mm
05:45 -19.8 °C -20.2 °C 34520.3 hPa Calm   10.3 km/h 94 % 0 mm
05:51 -19.8 °C -20.2 °C 34520.3 hPa NW 5.1 km/h 7.7 km/h 94 % 0 mm
05:57 -19.8 °C -20.2 °C 34520.3 hPa Calm   10.3 km/h 94 % 0 mm
06:03 -19.8 °C -20.3 °C 34520.3 hPa NW 2.3 km/h 10.3 km/h 94 % 0 mm
06:09 -19.8 °C -20.2 °C 34520.3 hPa Calm   10.3 km/h 94 % 0 mm
06:15 -19.8 °C -20.2 °C 34533.8 hPa NW 2.3 km/h 7.7 km/h 94 % 0 mm
06:21 -19.8 °C -20.2 °C 34533.8 hPa Calm   5.1 km/h 94 % 0 mm
06:27 -19.8 °C -20.3 °C 34533.8 hPa Calm   7.7 km/h 94 % 0 mm
06:33 -19.8 °C -20.3 °C 34533.8 hPa WNW 5.1 km/h 5.1 km/h 94 % 0 mm
06:39 -19.8 °C -20.3 °C 34533.8 hPa NNW 2.3 km/h 5.1 km/h 94 % 0 mm
06:45 -19.8 °C -20.3 °C 34533.8 hPa Calm   10.3 km/h 94 % 0 mm
06:51 -19.8 °C -20.3 °C 34533.8 hPa NW 5.1 km/h 10.3 km/h 94 % 0 mm
06:57 -19.8 °C -20.2 °C 34533.8 hPa NNW 2.3 km/h 2.6 km/h 94 % 0 mm
07:03 -19.8 °C -20.2 °C 34533.8 hPa NNW 7.6 km/h 12.9 km/h 94 % 0 mm
07:09 -19.8 °C -20.2 °C 34533.8 hPa NW 2.3 km/h 7.7 km/h 94 % 0 mm
07:15 -19.8 °C -20.2 °C 34533.8 hPa NNW 5.1 km/h 10.3 km/h 94 % 0 mm
07:21 -19.8 °C -20.3 °C 34533.8 hPa WNW 2.3 km/h 5.1 km/h 93 % 0 mm
07:27 -19.8 °C -20.3 °C 34533.8 hPa NW 7.6 km/h 7.7 km/h 93 % 0 mm
07:33 -19.7 °C -20.2 °C 34533.8 hPa NNW 2.3 km/h 5.1 km/h 94 % 0 mm
07:39 -19.7 °C -20.2 °C 34544 hPa NNW 2.3 km/h 5.1 km/h 94 % 0 mm
07:45 -19.7 °C -20.1 °C 34544 hPa Calm   2.6 km/h 94 % 0 mm
07:51 -19.7 °C -20.1 °C 34544 hPa Calm   2.6 km/h 94 % 0 mm
07:57 -19.7 °C -20.1 °C 34544 hPa North 2.3 km/h 10.3 km/h 94 % 0 mm
08:03 -19.6 °C -20.1 °C 34554.1 hPa North 2.3 km/h 12.9 km/h 94 % 0 mm
08:09 -19.6 °C -20.1 °C 34544 hPa NNE 2.3 km/h 7.7 km/h 94 % 0 mm
08:15 -19.6 °C -20 °C 34554.1 hPa Calm   10.3 km/h 94 % 0 mm
08:21 -19.6 °C -20 °C 34554.1 hPa North 7.6 km/h 7.7 km/h 94 % 0 mm
08:27 -19.5 °C -19.9 °C 34554.1 hPa NNW 5.1 km/h 10.3 km/h 94 % 0 mm
08:33 -19.4 °C -19.9 °C 34554.1 hPa NNE 2.3 km/h 10.3 km/h 94 % 0 mm
08:39 -19.4 °C -19.8 °C 34554.1 hPa NNE 2.3 km/h 10.3 km/h 94 % 0 mm
08:45 -19.4 °C -19.8 °C 34554.1 hPa Calm   7.7 km/h 94 % 0 mm
08:51 -19.3 °C -19.8 °C 34554.1 hPa NNE 5.1 km/h 7.7 km/h 94 % 0 mm
08:57 -19.3 °C -19.8 °C 34554.1 hPa NE 7.6 km/h 7.7 km/h 94 % 0 mm
09:03 -19.3 °C -19.8 °C 34567.7 hPa NE 2.3 km/h 5.1 km/h 94 % 0 mm
09:09 -19.3 °C -19.8 °C 34567.7 hPa North 2.3 km/h 5.1 km/h 94 % 0 mm
09:15 -19.3 °C -19.7 °C 34567.7 hPa Calm   2.6 km/h 94 % 0 mm
09:21 -19.2 °C -19.7 °C 34567.7 hPa Calm   2.6 km/h 94 % 0 mm
09:27 -19.2 °C -19.7 °C 34567.7 hPa Calm   2.6 km/h 94 % 0 mm
09:33 -19.1 °C -19.6 °C 34567.7 hPa Calm   2.6 km/h 94 % 0 mm
09:40 -19.1 °C -19.5 °C 34577.8 hPa Calm     94 % 0 mm
09:48 -19 °C -19.4 °C 34577.8 hPa Calm     94 % 0 mm
09:54 -19 °C -19.4 °C 34577.8 hPa Calm   2.6 km/h 94 % 0 mm
10:00 -19 °C -19.4 °C 34577.8 hPa Calm   2.6 km/h 94 % 0 mm
10:06 -18.9 °C -19.4 °C 34577.8 hPa Calm   5.1 km/h 94 % 0 mm
10:12 -18.9 °C -19.3 °C 34577.8 hPa North 2.3 km/h 5.1 km/h 94 % 0 mm
10:18 -18.8 °C -19.4 °C 34577.8 hPa NNW 2.3 km/h 5.1 km/h 93 % 0 mm
10:24 -18.9 °C -19.4 °C 34577.8 hPa North 2.3 km/h 5.1 km/h 93 % 0 mm
10:30 -18.9 °C -19.5 °C 34577.8 hPa NNW 5.1 km/h 7.7 km/h 93 % 0 mm
10:36 -18.9 °C -19.5 °C 34577.8 hPa Calm   5.1 km/h 92 % 0 mm
10:42 -18.8 °C -19.4 °C 34577.8 hPa North 2.3 km/h 7.7 km/h 92 % 0 mm
10:48 -18.8 °C -19.4 °C 34577.8 hPa NW 2.3 km/h 5.1 km/h 92 % 0 mm
10:54 -18.8 °C -19.4 °C 34577.8 hPa Calm     92 % 0 mm
11:00 -18.6 °C -19.2 °C 34591.4 hPa Calm   2.6 km/h 92 % 0 mm
11:06 -18.6 °C -19.3 °C 34577.8 hPa NE 2.3 km/h 7.7 km/h 91 % 0 mm
11:12 -18.7 °C -19.4 °C 34577.8 hPa NE 5.1 km/h 12.9 km/h 91 % 0 mm
11:18 -18.6 °C -19.3 °C 34577.8 hPa NE 7.6 km/h 10.3 km/h 91 % 0 mm
11:24 -18.7 °C -19.4 °C 34577.8 hPa NE 10.3 km/h 18.2 km/h 91 % 0 mm
11:30 -18.6 °C -19.3 °C 34591.4 hPa NW 5.1 km/h 12.9 km/h 91 % 0 mm
11:36 -18.6 °C -19.3 °C 34591.4 hPa NNW 7.6 km/h 12.9 km/h 91 % 0 mm
11:42 -18.6 °C -19.3 °C 34591.4 hPa North 7.6 km/h 10.3 km/h 91 % 0 mm
11:48 -18.5 °C -19.2 °C 34591.4 hPa North 5.1 km/h 7.7 km/h 91 % 0 mm
11:54 -18.4 °C -19.2 °C 34591.4 hPa NNE 5.1 km/h 7.7 km/h 91 % 0 mm
12:00 -18.4 °C -19.2 °C 34591.4 hPa Calm   5.1 km/h 90 % 0 mm
12:06 -18.4 °C -19.2 °C 34591.4 hPa NNW 2.3 km/h 5.1 km/h 90 % 0 mm
12:12 -18.3 °C -19.1 °C 34591.4 hPa North 2.3 km/h 5.1 km/h 90 % 0 mm
12:18 -18.3 °C -19.2 °C 34591.4 hPa Calm   5.1 km/h 89 % 0 mm
12:24 -18.3 °C -19.2 °C 34591.4 hPa NNE 5.1 km/h 10.3 km/h 89 % 0 mm
12:30 -18.2 °C -19 °C 34591.4 hPa NW 2.3 km/h 7.7 km/h 90 % 0 mm
12:36 -18.2 °C -19.1 °C 34591.4 hPa NNW 2.3 km/h 7.7 km/h 89 % 0 mm
12:42 -18.2 °C -19.1 °C 34591.4 hPa North 2.3 km/h 7.7 km/h 89 % 0 mm
12:48 -18.2 °C -19.2 °C 34591.4 hPa NNW 2.3 km/h 10.3 km/h 88 % 0 mm
12:54 -18.3 °C -19.2 °C 34591.4 hPa NNE 7.6 km/h 12.9 km/h 89 % 0 mm
13:00 -18.3 °C -19.2 °C 34577.8 hPa NNW 5.1 km/h 15.6 km/h 88 % 0 mm
13:06 -18.3 °C -19.2 °C 34577.8 hPa NNW 2.3 km/h 7.7 km/h 89 % 0 mm
13:12 -18.2 °C -19.1 °C 34577.8 hPa Calm   10.3 km/h 89 % 0 mm
13:18 -18.3 °C -19.2 °C 34577.8 hPa ENE 10.3 km/h 10.3 km/h 89 % 0 mm
13:24 -18.3 °C -19.2 °C 34577.8 hPa NE 2.3 km/h 18.2 km/h 89 % 0 mm
13:30 -18.4 °C -19.3 °C 34577.8 hPa NNE 5.1 km/h 20.8 km/h 88 % 0 mm
13:36 -18.4 °C -19.3 °C 34577.8 hPa NNW 2.3 km/h 7.7 km/h 89 % 0 mm
13:42 -18.3 °C -19.1 °C 34577.8 hPa NE 5.1 km/h 10.3 km/h 90 % 0 mm
13:48 -18.3 °C -19.2 °C 34577.8 hPa North 2.3 km/h 7.7 km/h 89 % 0 mm
13:54 -18.3 °C -19.2 °C 34577.8 hPa North 2.3 km/h 7.7 km/h 89 % 0 mm
14:00 -18.2 °C -19.1 °C 34577.8 hPa NNW 7.6 km/h 7.7 km/h 89 % 0 mm
14:06 -18.3 °C -19.2 °C 34577.8 hPa Calm   7.7 km/h 89 % 0 mm
14:12 -18.2 °C -19.1 °C 34577.8 hPa Calm   2.6 km/h 89 % 0 mm
14:18 -18.1 °C -19 °C 34577.8 hPa NNE 2.3 km/h 5.1 km/h 89 % 0 mm
14:24 -18.1 °C -19.1 °C 34567.7 hPa NW 2.3 km/h 7.7 km/h 88 % 0 mm
14:30 -18 °C -18.9 °C 34567.7 hPa North 2.3 km/h 5.1 km/h 89 % 0 mm
14:36 -18.1 °C -19 °C 34577.8 hPa North 2.3 km/h 5.1 km/h 88 % 0 mm
14:42 -18 °C -18.9 °C 34577.8 hPa Calm     89 % 0 mm
14:48 -17.9 °C -18.9 °C 34567.7 hPa Calm   2.6 km/h 88 % 0 mm
14:54 -17.9 °C -18.8 °C 34567.7 hPa Calm   2.6 km/h 88 % 0 mm
15:00 -17.9 °C -18.9 °C 34567.7 hPa Calm   5.1 km/h 88 % 0 mm
15:06 -17.9 °C -18.9 °C 34567.7 hPa WNW 2.3 km/h 2.6 km/h 88 % 0 mm
15:12 -17.9 °C -19 °C 34567.7 hPa NNE 5.1 km/h 5.1 km/h 87 % 0 mm
15:18 -17.9 °C -18.9 °C 34567.7 hPa Calm   2.6 km/h 88 % 0 mm
15:24 -17.9 °C -19 °C 34567.7 hPa Calm   2.6 km/h 87 % 0 mm
15:30 -17.9 °C -18.9 °C 34567.7 hPa Calm     88 % 0 mm
15:37 -17.9 °C -18.9 °C 34577.8 hPa Calm   2.6 km/h 88 % 0 mm
15:43 -17.9 °C -18.9 °C 34577.8 hPa Calm   2.6 km/h 88 % 0 mm
15:49 -17.9 °C -18.9 °C 34577.8 hPa NNE 2.3 km/h 2.6 km/h 88 % 0 mm
15:55 -18 °C -18.9 °C 34577.8 hPa Calm   2.6 km/h 88 % 0 mm
16:01 -18 °C -18.9 °C 34577.8 hPa Calm   2.6 km/h 88 % 0 mm
16:07 -18 °C -18.9 °C 34577.8 hPa Calm   2.6 km/h 88 % 0 mm
16:13 -18 °C -18.9 °C 34577.8 hPa NNE 2.3 km/h 2.6 km/h 89 % 0 mm
16:19 -18 °C -18.9 °C 34577.8 hPa Calm     89 % 0 mm
16:25 -18.1 °C -18.9 °C 34577.8 hPa NNE 2.3 km/h 2.6 km/h 89 % 0 mm
16:31 -18.1 °C -19.1 °C 34577.8 hPa Calm     88 % 0 mm
16:37 -18.1 °C -19.1 °C 34577.8 hPa Calm   2.6 km/h 88 % 0 mm
16:43 -18.1 °C -19 °C 34577.8 hPa Calm   2.6 km/h 89 % 0 mm
16:49 -18.1 °C -19 °C 34577.8 hPa Calm   2.6 km/h 89 % 0 mm
16:55 -18.1 °C -19 °C 34577.8 hPa Calm   2.6 km/h 89 % 0 mm
17:01 -18.1 °C -19 °C 34567.7 hPa Calm   2.6 km/h 89 % 0 mm
17:07 -18.2 °C -19.1 °C 34567.7 hPa Calm     89 % 0 mm
17:13 -18.1 °C -19 °C 34577.8 hPa Calm     89 % 0 mm
17:19 -18.1 °C -19 °C 34577.8 hPa Calm     89 % 0 mm
17:25 -18.1 °C -19 °C 34577.8 hPa Calm     89 % 0 mm
17:31 -18.2 °C -19.1 °C 34567.7 hPa Calm     89 % 0 mm
17:38 -18.1 °C -19 °C 34567.7 hPa Calm     89 % 0 mm
17:44 -18.2 °C -19.1 °C 34577.8 hPa Calm     89 % 0 mm
17:50 -18.2 °C -19.1 °C 34577.8 hPa Calm     89 % 0 mm
17:56 -18.2 °C -19.1 °C 34577.8 hPa Calm     89 % 0 mm
18:02 -18.2 °C -19.1 °C 34577.8 hPa Calm     89 % 0 mm
18:08 -18.2 °C -19.1 °C 34577.8 hPa Calm     89 % 0 mm
18:14 -18.2 °C -19 °C 34577.8 hPa Calm     90 % 0 mm
18:20 -18.2 °C -19 °C 34577.8 hPa Calm     90 % 0 mm
18:26 -18.2 °C -19 °C 34577.8 hPa Calm     90 % 0 mm
18:32 -18.2 °C -19 °C 34577.8 hPa Calm     90 % 0 mm
18:38 -18.2 °C -19 °C 34577.8 hPa Calm     90 % 0 mm
18:44 -18.2 °C -18.9 °C 34577.8 hPa Calm     91 % 0 mm
18:50 -18.2 °C -18.9 °C 34577.8 hPa Calm     91 % 0 mm
18:56 -18.2 °C -18.9 °C 34577.8 hPa NNE 2.3 km/h 2.6 km/h 91 % 0 mm
19:02 -18.2 °C -18.9 °C 34577.8 hPa Calm   2.6 km/h 91 % 0 mm
19:08 -18.2 °C -18.9 °C 34577.8 hPa Calm     91 % 0 mm
19:14 -18.2 °C -18.8 °C 34577.8 hPa Calm   2.6 km/h 92 % 0 mm
19:21 -18.2 °C -18.8 °C 34577.8 hPa Calm   2.6 km/h 92 % 0 mm
19:27 -18.2 °C -18.8 °C 34577.8 hPa NNE 2.3 km/h 2.6 km/h 92 % 0 mm
19:33 -18.2 °C -18.8 °C 34577.8 hPa Calm   2.6 km/h 92 % 0 mm
19:39 -18.2 °C -18.8 °C 34577.8 hPa NNE 2.3 km/h 2.6 km/h 92 % 0 mm
19:45 -18.2 °C -18.8 °C 34577.8 hPa Calm   2.6 km/h 92 % 0 mm
19:51 -18.2 °C -18.8 °C 34577.8 hPa Calm   5.1 km/h 92 % 0 mm
19:57 -18.2 °C -18.8 °C 34567.7 hPa NNE 7.6 km/h 7.7 km/h 92 % 0 mm
20:03 -18.2 °C -18.8 °C 34577.8 hPa NNE 2.3 km/h 7.7 km/h 92 % 0 mm
20:09 -18.2 °C -18.8 °C 34577.8 hPa Calm   5.1 km/h 92 % 0 mm
20:15 -18.2 °C -18.8 °C 34577.8 hPa NNE 2.3 km/h 2.6 km/h 93 % 0 mm
20:21 -18.2 °C -18.8 °C 34577.8 hPa Calm   5.1 km/h 93 % 0 mm
20:27 -18.2 °C -18.8 °C 34577.8 hPa Calm   2.6 km/h 92 % 0 mm
20:33 -18.2 °C -18.9 °C 34577.8 hPa Calm   5.1 km/h 91 % 0 mm
20:39 -18.2 °C -18.8 °C 34577.8 hPa NNE 5.1 km/h 7.7 km/h 92 % 0 mm
20:45 -18.2 °C -19 °C 34567.7 hPa Calm   2.6 km/h 90 % 0 mm
20:51 -18.2 °C -18.9 °C 34567.7 hPa NNE 2.3 km/h 2.6 km/h 91 % 0 mm
20:57 -18.2 °C -18.9 °C 34567.7 hPa Calm   2.6 km/h 91 % 0 mm
21:03 -18.2 °C -18.8 °C 34577.8 hPa NNE 2.3 km/h 2.6 km/h 92 % 0 mm
21:09 -18.2 °C -18.9 °C 34577.8 hPa NNE 2.3 km/h 5.1 km/h 91 % 0 mm
21:15 -18.2 °C -18.9 °C 34577.8 hPa Calm   5.1 km/h 91 % 0 mm
21:21 -18.2 °C -18.9 °C 34577.8 hPa NNE 2.3 km/h 2.6 km/h 91 % 0 mm
21:27 -18.2 °C -18.9 °C 34577.8 hPa Calm   2.6 km/h 91 % 0 mm
21:33 -18.2 °C -18.9 °C 34577.8 hPa NNE 2.3 km/h 5.1 km/h 91 % 0 mm
21:39 -18.2 °C -19 °C 34577.8 hPa NNE 2.3 km/h 15.6 km/h 90 % 0 mm
21:45 -18.2 °C -19.1 °C 34577.8 hPa NNE 7.6 km/h 12.9 km/h 89 % 0 mm
21:51 -18.2 °C -19.1 °C 34577.8 hPa NNE 2.3 km/h 7.7 km/h 88 % 0 mm
21:57 -18.2 °C -19.1 °C 34567.7 hPa NNE 7.6 km/h 18.2 km/h 88 % 0 mm
22:03 -18.2 °C -19.1 °C 34567.7 hPa NNE 7.6 km/h 10.3 km/h 88 % 0 mm
22:09 -18.2 °C -19.1 °C 34567.7 hPa NNE 5.1 km/h 12.9 km/h 89 % 0 mm
22:15 -18.2 °C -18.9 °C 34554.1 hPa NNE 7.6 km/h 10.3 km/h 90 % 0 mm
22:22 -18.2 °C -19.1 °C 34554.1 hPa Calm   7.7 km/h 89 % 0 mm
22:27 -18.2 °C -18.9 °C 34554.1 hPa NNE 2.3 km/h 5.1 km/h 90 % 0 mm
22:33 -18.2 °C -18.9 °C 34554.1 hPa NNE 5.1 km/h 7.7 km/h 90 % 0 mm
22:39 -18.2 °C -19.1 °C 34554.1 hPa Calm   10.3 km/h 89 % 0 mm
22:45 -18.2 °C -19 °C 34554.1 hPa NNE 2.3 km/h 10.3 km/h 90 % 0 mm
22:51 -18.2 °C -18.9 °C 34554.1 hPa NNE 5.1 km/h 7.7 km/h 91 % 0 mm
22:57 -18.2 °C -19 °C 34554.1 hPa NNE 5.1 km/h 12.9 km/h 90 % 0 mm
23:03 -18.2 °C -19 °C 34544 hPa NNE 2.3 km/h 15.6 km/h 90 % 0 mm
23:09 -18.3 °C -19.2 °C 34544 hPa NNE 2.3 km/h 15.6 km/h 88 % 0 mm
23:15 -18.3 °C -19.2 °C 34533.8 hPa NNE 7.6 km/h 12.9 km/h 88 % 0 mm
23:21 -18.3 °C -19.2 °C 34544 hPa Calm   10.3 km/h 88 % 0 mm
23:27 -18.3 °C -19.2 °C 34544 hPa NNE 7.6 km/h 15.6 km/h 88 % 0 mm
23:33 -18.2 °C -19.2 °C 34533.8 hPa NNE 2.3 km/h 12.9 km/h 88 % 0 mm
23:39 -18.3 °C -19.3 °C 34533.8 hPa NNE 7.6 km/h 10.3 km/h 87 % 0 mm
23:45 -18.2 °C -19.3 °C 34533.8 hPa NNE 7.6 km/h 15.6 km/h 87 % 0 mm
23:51 -18.2 °C -19.2 °C 34533.8 hPa NNE 12.7 km/h 15.6 km/h 88 % 0 mm
23:57 -18.2 °C -19.2 °C 34533.8 hPa Calm   15.6 km/h 88 % 0 mm
Meteo18
Compliments of Weather Underground - 4 mb

Script developed by  Jim McMurry - jmcmurry@mwt.net Adapted for the template by  Wim van der Kuil - Leuven-Template.eu

You find our weather info also at:

European Weather Network

Weather Underground

Equipment we use:

Weather-station
Davis Vue

Weather-program
Meteobridge

Weather-server
Raspberry PI 2 B+

Provider
1 and 1

Davis Vue

Meteobridge

Raspberry PI 2 B+

1 and 1